sensor_id;sensor_type;location;lat;lon;timestamp;pressure;altitude;pressure_sealevel;temperature;humidity
20015;BME280;61787;42.022;23.078;2023-04-28T00:00:57;97001.91;;;6.77;68.79
20015;BME280;61787;42.022;23.078;2023-04-28T00:01:58;96999.84;;;6.74;68.86
20015;BME280;61787;42.022;23.078;2023-04-28T00:03:00;96996.69;;;6.72;69.54
20015;BME280;61787;42.022;23.078;2023-04-28T00:04:02;97001.03;;;6.68;69.70
20015;BME280;61787;42.022;23.078;2023-04-28T00:05:04;97004.81;;;6.67;69.89
20015;BME280;61787;42.022;23.078;2023-04-28T00:06:07;96994.91;;;6.67;69.38
20015;BME280;61787;42.022;23.078;2023-04-28T00:07:08;97003.69;;;6.68;69.68
20015;BME280;61787;42.022;23.078;2023-04-28T00:08:10;97006.19;;;6.64;69.56
20015;BME280;61787;42.022;23.078;2023-04-28T00:09:11;97006.97;;;6.65;69.65
20015;BME280;61787;42.022;23.078;2023-04-28T00:10:13;96996.91;;;6.62;69.88
20015;BME280;61787;42.022;23.078;2023-04-28T00:11:15;97000.69;;;6.61;69.74
20015;BME280;61787;42.022;23.078;2023-04-28T00:12:16;97002.84;;;6.59;70.58
20015;BME280;61787;42.022;23.078;2023-04-28T00:13:18;96993.16;;;6.63;69.85
20015;BME280;61787;42.022;23.078;2023-04-28T00:14:19;96998.38;;;6.68;70.04
20015;BME280;61787;42.022;23.078;2023-04-28T00:15:21;97002.63;;;6.69;69.81
20015;BME280;61787;42.022;23.078;2023-04-28T00:16:23;97005.00;;;6.70;69.90
20015;BME280;61787;42.022;23.078;2023-04-28T00:17:24;97009.53;;;6.70;69.82
20015;BME280;61787;42.022;23.078;2023-04-28T00:18:26;97002.50;;;6.74;69.61
20015;BME280;61787;42.022;23.078;2023-04-28T00:19:27;97005.78;;;6.71;69.55
20015;BME280;61787;42.022;23.078;2023-04-28T00:20:29;97002.63;;;6.69;70.18
20015;BME280;61787;42.022;23.078;2023-04-28T00:21:31;96999.03;;;6.73;69.64
20015;BME280;61787;42.022;23.078;2023-04-28T00:22:32;97000.78;;;6.78;69.06
20015;BME280;61787;42.022;23.078;2023-04-28T00:23:34;97003.66;;;6.81;69.02
20015;BME280;61787;42.022;23.078;2023-04-28T00:24:35;97007.59;;;6.84;69.23
20015;BME280;61787;42.022;23.078;2023-04-28T00:25:37;97004.91;;;6.84;69.77
20015;BME280;61787;42.022;23.078;2023-04-28T00:26:39;97009.28;;;6.80;69.43
20015;BME280;61787;42.022;23.078;2023-04-28T00:27:40;97005.53;;;6.81;69.46
20015;BME280;61787;42.022;23.078;2023-04-28T00:28:42;97008.06;;;6.86;68.52
20015;BME280;61787;42.022;23.078;2023-04-28T00:29:43;96999.59;;;6.84;68.79
20015;BME280;61787;42.022;23.078;2023-04-28T00:30:45;97006.00;;;6.83;69.01
20015;BME280;61787;42.022;23.078;2023-04-28T00:31:47;97003.97;;;6.80;68.79
20015;BME280;61787;42.022;23.078;2023-04-28T00:32:49;97003.97;;;6.80;68.93
20015;BME280;61787;42.022;23.078;2023-04-28T00:33:51;97001.38;;;6.66;70.03
20015;BME280;61787;42.022;23.078;2023-04-28T00:34:52;97003.81;;;6.63;70.30
20015;BME280;61787;42.022;23.078;2023-04-28T00:36:00;97001.28;;;6.58;70.40
20015;BME280;61787;42.022;23.078;2023-04-28T00:37:02;97000.81;;;6.56;70.84
20015;BME280;61787;42.022;23.078;2023-04-28T00:38:04;97003.88;;;6.49;71.06
20015;BME280;61787;42.022;23.078;2023-04-28T00:39:06;97004.69;;;6.50;71.36
20015;BME280;61787;42.022;23.078;2023-04-28T00:40:08;97005.25;;;6.47;70.66
20015;BME280;61787;42.022;23.078;2023-04-28T00:41:10;97004.91;;;6.39;71.53
20015;BME280;61787;42.022;23.078;2023-04-28T00:42:13;97003.25;;;6.30;71.92
20015;BME280;61787;42.022;23.078;2023-04-28T00:43:14;97007.50;;;6.17;71.54
20015;BME280;61787;42.022;23.078;2023-04-28T00:44:16;97001.03;;;6.10;72.75
20015;BME280;61787;42.022;23.078;2023-04-28T00:45:18;97003.03;;;6.04;72.16
20015;BME280;61787;42.022;23.078;2023-04-28T00:46:24;97006.88;;;5.98;72.61
20015;BME280;61787;42.022;23.078;2023-04-28T00:47:27;97009.63;;;5.93;72.80
20015;BME280;61787;42.022;23.078;2023-04-28T00:48:29;97004.41;;;5.88;73.30
20015;BME280;61787;42.022;23.078;2023-04-28T00:49:31;97011.31;;;5.89;73.42
20015;BME280;61787;42.022;23.078;2023-04-28T00:50:35;97003.09;;;5.85;73.12
20015;BME280;61787;42.022;23.078;2023-04-28T00:51:37;97007.16;;;5.83;72.81
20015;BME280;61787;42.022;23.078;2023-04-28T00:52:38;97001.81;;;5.83;73.18
20015;BME280;61787;42.022;23.078;2023-04-28T00:53:40;96998.66;;;5.81;72.79
20015;BME280;61787;42.022;23.078;2023-04-28T00:54:42;96999.28;;;5.78;72.86
20015;BME280;61787;42.022;23.078;2023-04-28T00:55:45;97004.50;;;5.83;73.29
20015;BME280;61787;42.022;23.078;2023-04-28T00:56:47;97003.34;;;5.89;72.96
20015;BME280;61787;42.022;23.078;2023-04-28T00:57:50;97003.03;;;5.90;71.47
20015;BME280;61787;42.022;23.078;2023-04-28T00:58:52;97003.34;;;5.89;71.87
20015;BME280;61787;42.022;23.078;2023-04-28T00:59:54;97003.19;;;5.80;71.60
20015;BME280;61787;42.022;23.078;2023-04-28T01:01:06;96999.09;;;5.88;71.99
20015;BME280;61787;42.022;23.078;2023-04-28T01:02:08;97006.19;;;5.92;70.69
20015;BME280;61787;42.022;23.078;2023-04-28T01:03:10;97010.31;;;5.98;70.72
20015;BME280;61787;42.022;23.078;2023-04-28T01:04:12;97011.09;;;5.99;71.75
20015;BME280;61787;42.022;23.078;2023-04-28T01:05:14;97010.22;;;6.04;70.83
20015;BME280;61787;42.022;23.078;2023-04-28T01:06:16;97010.69;;;6.06;71.49
20015;BME280;61787;42.022;23.078;2023-04-28T01:07:18;97010.91;;;6.09;70.38
20015;BME280;61787;42.022;23.078;2023-04-28T01:08:23;97017.00;;;6.10;70.95
20015;BME280;61787;42.022;23.078;2023-04-28T01:09:28;97017.97;;;6.14;71.04
20015;BME280;61787;42.022;23.078;2023-04-28T01:10:30;97016.59;;;6.16;70.78
20015;BME280;61787;42.022;23.078;2023-04-28T01:11:31;97017.59;;;6.20;70.39
20015;BME280;61787;42.022;23.078;2023-04-28T01:12:33;97025.47;;;6.25;70.16
20015;BME280;61787;42.022;23.078;2023-04-28T01:13:35;97023.28;;;6.27;69.35
20015;BME280;61787;42.022;23.078;2023-04-28T01:14:36;97022.09;;;6.33;69.47
20015;BME280;61787;42.022;23.078;2023-04-28T01:15:38;97025.81;;;6.32;69.20
20015;BME280;61787;42.022;23.078;2023-04-28T01:16:39;97025.81;;;6.32;69.11
20015;BME280;61787;42.022;23.078;2023-04-28T01:17:42;97025.81;;;6.32;68.94
20015;BME280;61787;42.022;23.078;2023-04-28T01:18:46;97030.56;;;6.35;69.14
20015;BME280;61787;42.022;23.078;2023-04-28T01:19:48;97028.88;;;6.39;68.76
20015;BME280;61787;42.022;23.078;2023-04-28T01:20:50;97025.41;;;6.39;68.86
20015;BME280;61787;42.022;23.078;2023-04-28T01:21:51;97027.78;;;6.40;68.64
20015;BME280;61787;42.022;23.078;2023-04-28T01:22:53;97028.59;;;6.41;68.19
20015;BME280;61787;42.022;23.078;2023-04-28T01:23:56;97029.34;;;6.41;67.73
20015;BME280;61787;42.022;23.078;2023-04-28T01:24:58;97027.78;;;6.40;67.62
20015;BME280;61787;42.022;23.078;2023-04-28T01:26:00;97026.09;;;6.45;68.13
20015;BME280;61787;42.022;23.078;2023-04-28T01:27:02;97031.13;;;6.46;67.54
20015;BME280;61787;42.022;23.078;2023-04-28T01:28:03;97031.91;;;6.47;67.84
20015;BME280;61787;42.022;23.078;2023-04-28T01:29:05;97037.84;;;6.43;68.08
20015;BME280;61787;42.022;23.078;2023-04-28T01:30:07;97032.13;;;6.36;68.56
20015;BME280;61787;42.022;23.078;2023-04-28T01:31:09;97032.13;;;6.36;68.17
20015;BME280;61787;42.022;23.078;2023-04-28T01:32:10;97030.56;;;6.35;68.38
20015;BME280;61787;42.022;23.078;2023-04-28T01:33:12;97035.88;;;6.35;67.58
20015;BME280;61787;42.022;23.078;2023-04-28T01:34:13;97026.78;;;6.36;68.30
20015;BME280;61787;42.022;23.078;2023-04-28T01:35:15;97033.22;;;6.35;68.51
20015;BME280;61787;42.022;23.078;2023-04-28T01:36:17;97039.03;;;6.37;68.21
20015;BME280;61787;42.022;23.078;2023-04-28T01:37:19;97031.34;;;6.36;67.52
20015;BME280;61787;42.022;23.078;2023-04-28T01:38:20;97032.31;;;6.40;67.86
20015;BME280;61787;42.022;23.078;2023-04-28T01:39:22;97030.34;;;6.46;67.94
20015;BME280;61787;42.022;23.078;2023-04-28T01:40:24;97031.31;;;6.50;67.14
20015;BME280;61787;42.022;23.078;2023-04-28T01:41:25;97035.47;;;6.42;67.80
20015;BME280;61787;42.022;23.078;2023-04-28T01:42:27;97024.63;;;6.38;67.99
20015;BME280;61787;42.022;23.078;2023-04-28T01:43:28;97032.72;;;6.33;67.93
20015;BME280;61787;42.022;23.078;2023-04-28T01:44:30;97027.28;;;6.38;68.39
20015;BME280;61787;42.022;23.078;2023-04-28T01:45:31;97034.09;;;6.45;67.89
20015;BME280;61787;42.022;23.078;2023-04-28T01:46:33;97030.47;;;6.40;67.23
20015;BME280;61787;42.022;23.078;2023-04-28T01:47:35;97034.31;;;6.34;68.16
20015;BME280;61787;42.022;23.078;2023-04-28T01:48:37;97032.72;;;6.33;67.57
20015;BME280;61787;42.022;23.078;2023-04-28T01:49:38;97032.13;;;6.36;67.67
20015;BME280;61787;42.022;23.078;2023-04-28T01:50:40;97029.78;;;6.35;67.83
20015;BME280;61787;42.022;23.078;2023-04-28T01:51:42;97036.25;;;6.42;67.86
20015;BME280;61787;42.022;23.078;2023-04-28T01:52:43;97029.31;;;6.55;67.41
20015;BME280;61787;42.022;23.078;2023-04-28T01:53:45;97027.81;;;6.63;66.48
20015;BME280;61787;42.022;23.078;2023-04-28T01:54:47;97026.53;;;6.60;66.87
20015;BME280;61787;42.022;23.078;2023-04-28T01:55:48;97035.91;;;6.58;67.38
20015;BME280;61787;42.022;23.078;2023-04-28T01:56:50;97031.31;;;6.50;67.78
20015;BME280;61787;42.022;23.078;2023-04-28T01:57:51;97025.81;;;6.46;67.89
20015;BME280;61787;42.022;23.078;2023-04-28T01:58:53;97031.91;;;6.47;68.05
20015;BME280;61787;42.022;23.078;2023-04-28T01:59:54;97023.91;;;6.47;67.52
20015;BME280;61787;42.022;23.078;2023-04-28T02:00:57;97027.84;;;6.49;67.36
20015;BME280;61787;42.022;23.078;2023-04-28T02:01:58;97024.56;;;6.52;67.36
20015;BME280;61787;42.022;23.078;2023-04-28T02:03:00;97027.56;;;6.51;67.68
20015;BME280;61787;42.022;23.078;2023-04-28T02:04:02;97032.69;;;6.47;67.78
20015;BME280;61787;42.022;23.078;2023-04-28T02:05:04;97028.75;;;6.45;67.72
20015;BME280;61787;42.022;23.078;2023-04-28T02:06:05;97033.00;;;6.46;68.28
20015;BME280;61787;42.022;23.078;2023-04-28T02:07:07;97029.56;;;6.45;67.81
20015;BME280;61787;42.022;23.078;2023-04-28T02:08:09;97032.69;;;6.47;68.29
20015;BME280;61787;42.022;23.078;2023-04-28T02:09:10;97036.63;;;6.50;67.77
20015;BME280;61787;42.022;23.078;2023-04-28T02:10:12;97032.91;;;6.51;68.17
20015;BME280;61787;42.022;23.078;2023-04-28T02:11:14;97042.94;;;6.54;67.79
20015;BME280;61787;42.022;23.078;2023-04-28T02:12:15;97044.88;;;6.62;67.53
20015;BME280;61787;42.022;23.078;2023-04-28T02:13:17;97043.19;;;6.66;67.87
20015;BME280;61787;42.022;23.078;2023-04-28T02:14:19;97041.13;;;6.63;67.80
20015;BME280;61787;42.022;23.078;2023-04-28T02:15:21;97045.47;;;6.59;67.99
20015;BME280;61787;42.022;23.078;2023-04-28T02:16:22;97040.53;;;6.66;67.87
20015;BME280;61787;42.022;23.078;2023-04-28T02:17:24;97041.22;;;6.71;67.68
20015;BME280;61787;42.022;23.078;2023-04-28T02:18:25;97046.66;;;6.66;68.41
20015;BME280;61787;42.022;23.078;2023-04-28T02:19:27;97046.09;;;6.56;69.65
20015;BME280;61787;42.022;23.078;2023-04-28T02:20:29;97047.50;;;6.39;70.34
20015;BME280;61787;42.022;23.078;2023-04-28T02:21:33;97047.34;;;6.36;71.22
20015;BME280;61787;42.022;23.078;2023-04-28T02:22:35;97054.75;;;6.25;71.59
20015;BME280;61787;42.022;23.078;2023-04-28T02:23:37;97047.75;;;6.16;71.66
20015;BME280;61787;42.022;23.078;2023-04-28T02:24:39;97048.53;;;6.16;72.24
20015;BME280;61787;42.022;23.078;2023-04-28T02:25:40;97049.63;;;6.15;71.98
20015;BME280;61787;42.022;23.078;2023-04-28T02:26:42;97047.56;;;6.12;72.41
20015;BME280;61787;42.022;23.078;2023-04-28T02:27:44;97044.41;;;6.10;72.22
20015;BME280;61787;42.022;23.078;2023-04-28T02:28:46;97048.53;;;6.16;72.75
20015;BME280;61787;42.022;23.078;2023-04-28T02:29:49;97050.50;;;6.24;72.76
20015;BME280;61787;42.022;23.078;2023-04-28T02:30:50;97051.09;;;6.21;71.98
20015;BME280;61787;42.022;23.078;2023-04-28T02:31:52;97055.22;;;6.27;72.35
20015;BME280;61787;42.022;23.078;2023-04-28T02:32:54;97055.00;;;6.37;71.99
20015;BME280;61787;42.022;23.078;2023-04-28T02:33:56;97053.19;;;6.47;71.22
20015;BME280;61787;42.022;23.078;2023-04-28T02:34:57;97054.56;;;6.58;71.32
20015;BME280;61787;42.022;23.078;2023-04-28T02:36:00;97058.09;;;6.67;70.54
20015;BME280;61787;42.022;23.078;2023-04-28T02:37:01;97062.72;;;6.75;70.64
20015;BME280;61787;42.022;23.078;2023-04-28T02:38:03;97062.28;;;6.81;69.76
20015;BME280;61787;42.022;23.078;2023-04-28T02:39:05;97060.75;;;6.89;69.33
20015;BME280;61787;42.022;23.078;2023-04-28T02:40:07;97055.31;;;6.94;69.73
20015;BME280;61787;42.022;23.078;2023-04-28T02:41:08;97059.75;;;6.99;68.87
20015;BME280;61787;42.022;23.078;2023-04-28T02:42:10;97061.19;;;7.05;68.66
20015;BME280;61787;42.022;23.078;2023-04-28T02:43:12;97058.69;;;7.08;67.54
20015;BME280;61787;42.022;23.078;2023-04-28T02:44:13;97064.41;;;7.15;67.17
20015;BME280;61787;42.022;23.078;2023-04-28T02:45:15;97061.63;;;7.20;67.06
20015;BME280;61787;42.022;23.078;2023-04-28T02:46:17;97067.31;;;7.27;67.15
20015;BME280;61787;42.022;23.078;2023-04-28T02:47:18;97068.28;;;7.32;66.92
20015;BME280;61787;42.022;23.078;2023-04-28T02:48:20;97068.44;;;7.35;67.07
20015;BME280;61787;42.022;23.078;2023-04-28T02:49:21;97069.22;;;7.36;66.55
20015;BME280;61787;42.022;23.078;2023-04-28T02:50:23;97069.84;;;7.33;66.14
20015;BME280;61787;42.022;23.078;2023-04-28T02:51:25;97067.66;;;7.35;66.56
20015;BME280;61787;42.022;23.078;2023-04-28T02:52:27;97070.81;;;7.37;66.18
20015;BME280;61787;42.022;23.078;2023-04-28T02:53:28;97063.78;;;7.41;65.88
20015;BME280;61787;42.022;23.078;2023-04-28T02:54:30;97067.72;;;7.43;65.59
20015;BME280;61787;42.022;23.078;2023-04-28T02:55:34;97071.06;;;7.49;65.50
20015;BME280;61787;42.022;23.078;2023-04-28T02:56:36;97068.53;;;7.52;65.67
20015;BME280;61787;42.022;23.078;2023-04-28T02:57:37;97070.28;;;7.57;65.31
20015;BME280;61787;42.022;23.078;2023-04-28T02:58:39;97077.22;;;7.58;64.97
20015;BME280;61787;42.022;23.078;2023-04-28T02:59:40;97069.66;;;7.60;64.93
20015;BME280;61787;42.022;23.078;2023-04-28T03:00:42;97077.38;;;7.61;64.74
20015;BME280;61787;42.022;23.078;2023-04-28T03:01:44;97081.13;;;7.60;64.96
20015;BME280;61787;42.022;23.078;2023-04-28T03:02:46;97079.56;;;7.59;65.21
20015;BME280;61787;42.022;23.078;2023-04-28T03:03:48;97084.28;;;7.62;65.36
20015;BME280;61787;42.022;23.078;2023-04-28T03:04:50;97087.75;;;7.63;65.11
20015;BME280;61787;42.022;23.078;2023-04-28T03:05:51;97088.94;;;7.48;65.77
20015;BME280;61787;42.022;23.078;2023-04-28T03:06:53;97088.00;;;7.22;66.50
20015;BME280;61787;42.022;23.078;2023-04-28T03:07:55;97088.78;;;7.00;67.49
20015;BME280;61787;42.022;23.078;2023-04-28T03:08:56;97091.97;;;6.89;68.46
20015;BME280;61787;42.022;23.078;2023-04-28T03:09:58;97089.91;;;6.85;68.58
20015;BME280;61787;42.022;23.078;2023-04-28T03:11:00;97094.34;;;6.90;68.38
20015;BME280;61787;42.022;23.078;2023-04-28T03:12:01;97091.06;;;6.93;68.29
20015;BME280;61787;42.022;23.078;2023-04-28T03:13:03;97086.09;;;7.00;68.05
20015;BME280;61787;42.022;23.078;2023-04-28T03:14:05;97091.03;;;7.07;68.03
20015;BME280;61787;42.022;23.078;2023-04-28T03:15:07;97090.56;;;7.13;67.91
20015;BME280;61787;42.022;23.078;2023-04-28T03:16:09;97095.19;;;7.21;67.15
20015;BME280;61787;42.022;23.078;2023-04-28T03:17:10;97094.44;;;7.29;66.98
20015;BME280;61787;42.022;23.078;2023-04-28T03:18:14;97096.53;;;7.33;67.16
20015;BME280;61787;42.022;23.078;2023-04-28T03:19:16;97094.31;;;7.35;67.67
20015;BME280;61787;42.022;23.078;2023-04-28T03:20:18;97096.06;;;7.39;67.09
20015;BME280;61787;42.022;23.078;2023-04-28T03:21:19;97100.03;;;7.42;67.00
20015;BME280;61787;42.022;23.078;2023-04-28T03:22:21;97099.06;;;7.38;67.01
20015;BME280;61787;42.022;23.078;2023-04-28T03:23:23;97100.44;;;7.35;66.72
20015;BME280;61787;42.022;23.078;2023-04-28T03:24:24;97100.44;;;7.35;67.03
20015;BME280;61787;42.022;23.078;2023-04-28T03:25:26;97099.31;;;7.27;67.00
20015;BME280;61787;42.022;23.078;2023-04-28T03:26:28;97095.19;;;7.21;67.32
20015;BME280;61787;42.022;23.078;2023-04-28T03:27:29;97107.00;;;7.07;66.96
20015;BME280;61787;42.022;23.078;2023-04-28T03:28:31;97110.34;;;6.90;67.89
20015;BME280;61787;42.022;23.078;2023-04-28T03:29:33;97114.19;;;6.84;68.82
20015;BME280;61787;42.022;23.078;2023-04-28T03:30:35;97119.94;;;6.77;69.02
20015;BME280;61787;42.022;23.078;2023-04-28T03:31:36;97117.88;;;6.74;69.71
20015;BME280;61787;42.022;23.078;2023-04-28T03:32:38;97120.03;;;6.72;69.21
20015;BME280;61787;42.022;23.078;2023-04-28T03:33:39;97121.44;;;6.70;69.16
20015;BME280;61787;42.022;23.078;2023-04-28T03:34:41;97122.22;;;6.70;69.40
20015;BME280;61787;42.022;23.078;2023-04-28T03:35:43;97122.25;;;6.57;69.85
20015;BME280;61787;42.022;23.078;2023-04-28T03:36:44;97121.06;;;6.63;69.71
20015;BME280;61787;42.022;23.078;2023-04-28T03:37:46;97123.19;;;6.74;70.12
20015;BME280;61787;42.022;23.078;2023-04-28T03:38:47;97125.34;;;6.86;69.50
20015;BME280;61787;42.022;23.078;2023-04-28T03:39:49;97133.13;;;6.96;69.10
20015;BME280;61787;42.022;23.078;2023-04-28T03:40:51;97128.63;;;7.05;68.82
20015;BME280;61787;42.022;23.078;2023-04-28T03:41:52;97130.56;;;7.13;68.32
20015;BME280;61787;42.022;23.078;2023-04-28T03:42:54;97130.94;;;7.20;68.26
20015;BME280;61787;42.022;23.078;2023-04-28T03:43:55;97125.19;;;7.27;67.78
20015;BME280;61787;42.022;23.078;2023-04-28T03:44:57;97135.41;;;7.34;67.61
20015;BME280;61787;42.022;23.078;2023-04-28T03:45:59;97130.47;;;7.41;67.31
20015;BME280;61787;42.022;23.078;2023-04-28T03:47:00;97135.38;;;7.47;67.18
20015;BME280;61787;42.022;23.078;2023-04-28T03:48:02;97126.28;;;7.48;66.97
20015;BME280;61787;42.022;23.078;2023-04-28T03:49:04;97138.88;;;7.56;66.59
20015;BME280;61787;42.022;23.078;2023-04-28T03:50:06;97137.50;;;7.59;66.13
20015;BME280;61787;42.022;23.078;2023-04-28T03:51:08;97145.66;;;7.62;66.03
20015;BME280;61787;42.022;23.078;2023-04-28T03:52:09;97144.75;;;7.67;66.42
20015;BME280;61787;42.022;23.078;2023-04-28T03:53:11;97142.56;;;7.69;65.45
20015;BME280;61787;42.022;23.078;2023-04-28T03:54:13;97143.03;;;7.71;65.50
20015;BME280;61787;42.022;23.078;2023-04-28T03:55:15;97141.34;;;7.75;64.81
20015;BME280;61787;42.022;23.078;2023-04-28T03:56:16;97149.84;;;7.77;65.04
20015;BME280;61787;42.022;23.078;2023-04-28T03:57:18;97151.88;;;7.80;65.04
20015;BME280;61787;42.022;23.078;2023-04-28T03:58:20;97148.13;;;7.81;64.77
20015;BME280;61787;42.022;23.078;2023-04-28T03:59:21;97152.88;;;7.84;64.72
20015;BME280;61787;42.022;23.078;2023-04-28T04:00:23;97148.00;;;7.86;64.46
20015;BME280;61787;42.022;23.078;2023-04-28T04:01:24;97152.72;;;7.89;64.87
20015;BME280;61787;42.022;23.078;2023-04-28T04:02:26;97160.25;;;7.87;64.83
20015;BME280;61787;42.022;23.078;2023-04-28T04:03:28;97162.69;;;7.75;64.81
20015;BME280;61787;42.022;23.078;2023-04-28T04:04:30;97162.41;;;7.54;65.02
20015;BME280;61787;42.022;23.078;2023-04-28T04:05:32;97161.50;;;7.37;66.05
20015;BME280;61787;42.022;23.078;2023-04-28T04:06:34;97173.63;;;7.20;66.71
20015;BME280;61787;42.022;23.078;2023-04-28T04:07:35;97171.22;;;6.97;67.32
20015;BME280;61787;42.022;23.078;2023-04-28T04:08:37;97171.47;;;6.73;68.28
20015;BME280;61787;42.022;23.078;2023-04-28T04:09:39;97166.78;;;6.56;69.53
20015;BME280;61787;42.022;23.078;2023-04-28T04:10:40;97177.41;;;6.42;70.40
20015;BME280;61787;42.022;23.078;2023-04-28T04:11:42;97168.06;;;6.18;71.49
20015;BME280;61787;42.022;23.078;2023-04-28T04:12:43;97171.22;;;6.20;72.07
20015;BME280;61787;42.022;23.078;2023-04-28T04:13:45;97171.59;;;6.27;77.36
20015;BME280;61787;42.022;23.078;2023-04-28T04:14:47;97173.97;;;6.28;73.69
20015;BME280;61787;42.022;23.078;2023-04-28T04:15:48;97173.00;;;6.24;73.34
20015;BME280;61787;42.022;23.078;2023-04-28T04:16:53;97170.81;;;6.26;73.07
20015;BME280;61787;42.022;23.078;2023-04-28T04:17:55;97179.31;;;6.28;72.22
20015;BME280;61787;42.022;23.078;2023-04-28T04:18:57;97174.16;;;6.32;72.79
20015;BME280;61787;42.022;23.078;2023-04-28T04:19:59;97182.84;;;6.37;72.90
20015;BME280;61787;42.022;23.078;2023-04-28T04:21:00;97174.56;;;6.39;72.17
20015;BME280;61787;42.022;23.078;2023-04-28T04:22:02;97171.63;;;6.40;72.57
20015;BME280;61787;42.022;23.078;2023-04-28T04:23:04;97180.97;;;6.52;72.34
20015;BME280;61787;42.022;23.078;2023-04-28T04:24:06;97182.94;;;6.60;72.09
20015;BME280;61787;42.022;23.078;2023-04-28T04:25:07;97180.47;;;6.63;71.86
20015;BME280;61787;42.022;23.078;2023-04-28T04:26:09;97178.09;;;6.62;71.97
20015;BME280;61787;42.022;23.078;2023-04-28T04:27:11;97180.84;;;6.70;71.41
20015;BME280;61787;42.022;23.078;2023-04-28T04:28:12;97180.97;;;6.65;71.54
20015;BME280;61787;42.022;23.078;2023-04-28T04:29:14;97181.03;;;6.74;71.58
20015;BME280;61787;42.022;23.078;2023-04-28T04:30:15;97179.25;;;6.83;70.10
20015;BME280;61787;42.022;23.078;2023-04-28T04:31:17;97178.44;;;6.96;69.67
20015;BME280;61787;42.022;23.078;2023-04-28T04:32:20;97181.25;;;7.13;69.37
20015;BME280;61787;42.022;23.078;2023-04-28T04:33:21;97180.47;;;7.35;69.24
20015;BME280;61787;42.022;23.078;2023-04-28T04:34:23;97178.41;;;7.54;69.83
20015;BME280;61787;42.022;23.078;2023-04-28T04:35:25;97173.97;;;7.72;68.58
20015;BME280;61787;42.022;23.078;2023-04-28T04:36:26;97179.31;;;7.94;67.80
20015;BME280;61787;42.022;23.078;2023-04-28T04:37:28;97183.03;;;8.16;66.77
20015;BME280;61787;42.022;23.078;2023-04-28T04:38:30;97176.53;;;8.39;66.64
20015;BME280;61787;42.022;23.078;2023-04-28T04:39:31;97175.97;;;8.59;65.32
20015;BME280;61787;42.022;23.078;2023-04-28T04:40:33;97182.16;;;8.77;65.55
20015;BME280;61787;42.022;23.078;2023-04-28T04:41:35;97175.22;;;8.93;64.84
20015;BME280;61787;42.022;23.078;2023-04-28T04:42:36;97183.78;;;9.12;63.79
20015;BME280;61787;42.022;23.078;2023-04-28T04:43:38;97176.84;;;9.28;63.54
20015;BME280;61787;42.022;23.078;2023-04-28T04:44:39;97182.97;;;9.46;64.40
20015;BME280;61787;42.022;23.078;2023-04-28T04:45:41;97179.81;;;9.44;59.37
20015;BME280;61787;42.022;23.078;2023-04-28T04:46:43;97180.63;;;9.27;59.58
20015;BME280;61787;42.022;23.078;2023-04-28T04:47:44;97174.78;;;8.99;58.44
20015;BME280;61787;42.022;23.078;2023-04-28T04:48:46;97179.00;;;8.75;60.67
20015;BME280;61787;42.022;23.078;2023-04-28T04:49:48;97178.84;;;8.71;60.21
20015;BME280;61787;42.022;23.078;2023-04-28T04:50:50;97185.88;;;8.59;61.27
20015;BME280;61787;42.022;23.078;2023-04-28T04:51:52;97182.31;;;8.80;61.00
20015;BME280;61787;42.022;23.078;2023-04-28T04:52:53;97183.09;;;8.89;60.58
20015;BME280;61787;42.022;23.078;2023-04-28T04:53:56;97184.69;;;8.90;59.65
20015;BME280;61787;42.022;23.078;2023-04-28T04:54:58;97182.00;;;8.90;58.72
20015;BME280;61787;42.022;23.078;2023-04-28T04:56:00;97181.38;;;8.93;60.12
20015;BME280;61787;42.022;23.078;2023-04-28T04:57:01;97180.94;;;9.17;59.87
20015;BME280;61787;42.022;23.078;2023-04-28T04:58:03;97186.75;;;9.36;58.74
20015;BME280;61787;42.022;23.078;2023-04-28T04:59:05;97184.41;;;9.35;57.80
20015;BME280;61787;42.022;23.078;2023-04-28T05:00:07;97188.19;;;9.25;59.41
20015;BME280;61787;42.022;23.078;2023-04-28T05:01:09;97187.84;;;9.44;58.13
20015;BME280;61787;42.022;23.078;2023-04-28T05:02:11;97189.75;;;9.69;58.08
20015;BME280;61787;42.022;23.078;2023-04-28T05:03:13;97188.72;;;9.91;57.11
20015;BME280;61787;42.022;23.078;2023-04-28T05:04:15;97187.28;;;10.02;55.56
20015;BME280;61787;42.022;23.078;2023-04-28T05:05:17;97188.56;;;10.05;57.06
20015;BME280;61787;42.022;23.078;2023-04-28T05:06:23;97186.94;;;10.21;58.39
20015;BME280;61787;42.022;23.078;2023-04-28T05:07:25;97192.91;;;10.35;59.74
20015;BME280;61787;42.022;23.078;2023-04-28T05:08:27;97196.63;;;10.51;66.65
20015;BME280;61787;42.022;23.078;2023-04-28T05:09:28;97188.81;;;10.88;71.50
20015;BME280;61787;42.022;23.078;2023-04-28T05:10:31;97193.31;;;11.25;66.50
20015;BME280;61787;42.022;23.078;2023-04-28T05:11:32;97196.72;;;11.55;63.72
20015;BME280;61787;42.022;23.078;2023-04-28T05:12:34;97199.44;;;11.88;61.19
20015;BME280;61787;42.022;23.078;2023-04-28T05:13:35;97202.44;;;12.19;58.00
20015;BME280;61787;42.022;23.078;2023-04-28T05:14:37;97192.19;;;12.46;57.13
20015;BME280;61787;42.022;23.078;2023-04-28T05:15:38;97195.78;;;12.62;53.81
20015;BME280;61787;42.022;23.078;2023-04-28T05:16:40;97190.50;;;12.65;52.19
20015;BME280;61787;42.022;23.078;2023-04-28T05:17:42;97190.59;;;12.69;51.80
20015;BME280;61787;42.022;23.078;2023-04-28T05:18:44;97191.06;;;12.71;52.07
20015;BME280;61787;42.022;23.078;2023-04-28T05:19:45;97190.84;;;12.76;51.85
20015;BME280;61787;42.022;23.078;2023-04-28T05:20:47;97196.22;;;12.76;51.33
20015;BME280;61787;42.022;23.078;2023-04-28T05:21:49;97188.81;;;12.73;51.76
20015;BME280;61787;42.022;23.078;2023-04-28T05:22:52;97192.84;;;12.43;51.67
20015;BME280;61787;42.022;23.078;2023-04-28T05:23:54;97191.94;;;12.38;52.10
20015;BME280;61787;42.022;23.078;2023-04-28T05:24:57;97187.59;;;12.46;52.40
20015;BME280;61787;42.022;23.078;2023-04-28T05:25:59;97189.69;;;12.28;54.27
20015;BME280;61787;42.022;23.078;2023-04-28T05:27:00;97189.22;;;12.26;54.78
20015;BME280;61787;42.022;23.078;2023-04-28T05:28:02;97185.88;;;12.42;54.28